sensor_id;sensor_type;location;lat;lon;timestamp;pressure;altitude;pressure_sealevel;temperature;humidity
15487;BME280;7845;53.698;10.078;2023-08-21T00:01:56;101536.59;;;21.24;nan
15487;BME280;7845;53.698;10.078;2023-08-21T00:04:21;101520.09;;;21.16;nan
15487;BME280;7845;53.698;10.078;2023-08-21T00:06:47;101524.16;;;21.24;nan
15487;BME280;7845;53.698;10.078;2023-08-21T00:09:12;101526.53;;;21.32;nan
15487;BME280;7845;53.698;10.078;2023-08-21T00:11:37;101529.19;;;21.32;nan
15487;BME280;7845;53.698;10.078;2023-08-21T00:14:06;101532.75;;;21.31;nan
15487;BME280;7845;53.698;10.078;2023-08-21T00:16:31;101537.16;;;21.32;nan
15487;BME280;7845;53.698;10.078;2023-08-21T00:19:00;101545.53;;;21.21;nan
15487;BME280;7845;53.698;10.078;2023-08-21T00:21:25;101538.31;;;21.25;nan
15487;BME280;7845;53.698;10.078;2023-08-21T00:23:50;101541.47;;;21.13;nan
15487;BME280;7845;53.698;10.078;2023-08-21T00:26:16;101533.22;;;21.20;nan
15487;BME280;7845;53.698;10.078;2023-08-21T00:28:41;101544.56;;;21.01;nan
15487;BME280;7845;53.698;10.078;2023-08-21T00:31:06;101546.69;;;20.91;nan
15487;BME280;7845;53.698;10.078;2023-08-21T00:33:32;101548.94;;;21.02;nan
15487;BME280;7845;53.698;10.078;2023-08-21T00:35:58;101549.75;;;21.04;nan
15487;BME280;7845;53.698;10.078;2023-08-21T00:38:23;101543.78;;;20.97;nan
15487;BME280;7845;53.698;10.078;2023-08-21T00:40:49;101555.28;;;20.97;nan
15487;BME280;7845;53.698;10.078;2023-08-21T00:43:14;101570.56;;;20.91;nan
15487;BME280;7845;53.698;10.078;2023-08-21T00:45:42;101564.59;;;20.86;nan
15487;BME280;7845;53.698;10.078;2023-08-21T00:48:08;101562.16;;;20.80;nan
15487;BME280;7845;53.698;10.078;2023-08-21T00:50:34;101566.59;;;20.79;nan
15487;BME280;7845;53.698;10.078;2023-08-21T00:53:00;101565.69;;;20.80;nan
15487;BME280;7845;53.698;10.078;2023-08-21T00:55:25;101570.41;;;20.72;nan
15487;BME280;7845;53.698;10.078;2023-08-21T00:57:51;101566.78;;;20.75;nan
15487;BME280;7845;53.698;10.078;2023-08-21T01:00:16;101566.56;;;20.81;nan
15487;BME280;7845;53.698;10.078;2023-08-21T01:02:42;101557.66;;;20.82;nan
15487;BME280;7845;53.698;10.078;2023-08-21T01:05:08;101564.25;;;20.72;nan
15487;BME280;7845;53.698;10.078;2023-08-21T01:07:38;101562.63;;;20.68;nan
15487;BME280;7845;53.698;10.078;2023-08-21T01:10:12;101551.34;;;20.61;nan
15487;BME280;7845;53.698;10.078;2023-08-21T01:13:19;101547.25;;;20.53;nan
15487;BME280;7845;53.698;10.078;2023-08-21T01:15:50;101554.88;;;20.62;nan
15487;BME280;7845;53.698;10.078;2023-08-21T01:18:18;101554.84;;;20.63;nan
15487;BME280;7845;53.698;10.078;2023-08-21T01:20:45;101556.41;;;20.69;nan
15487;BME280;7845;53.698;10.078;2023-08-21T01:23:27;101567.28;;;20.61;nan
15487;BME280;7845;53.698;10.078;2023-08-21T01:25:53;101571.09;;;20.54;nan
15487;BME280;7845;53.698;10.078;2023-08-21T01:28:18;101576.72;;;20.45;nan
15487;BME280;7845;53.698;10.078;2023-08-21T01:30:43;101563.16;;;20.53;nan
15487;BME280;7845;53.698;10.078;2023-08-21T01:33:12;101569.88;;;20.63;nan
15487;BME280;7845;53.698;10.078;2023-08-21T01:35:40;101574.22;;;20.65;nan
15487;BME280;7845;53.698;10.078;2023-08-21T01:38:06;101561.81;;;20.66;nan
15487;BME280;7845;53.698;10.078;2023-08-21T01:40:32;101560.72;;;20.71;nan
15487;BME280;7845;53.698;10.078;2023-08-21T01:42:58;101561.91;;;20.63;nan
15487;BME280;7845;53.698;10.078;2023-08-21T01:45:24;101565.25;;;20.68;nan
15487;BME280;7845;53.698;10.078;2023-08-21T01:47:49;101572.25;;;20.70;nan
15487;BME280;7845;53.698;10.078;2023-08-21T01:50:14;101575.84;;;20.69;nan
15487;BME280;7845;53.698;10.078;2023-08-21T01:52:40;101563.25;;;20.74;nan
15487;BME280;7845;53.698;10.078;2023-08-21T01:55:05;101565.50;;;20.85;nan
15487;BME280;7845;53.698;10.078;2023-08-21T01:57:34;101579.81;;;20.81;nan
15487;BME280;7845;53.698;10.078;2023-08-21T02:00:01;101578.16;;;20.78;nan
15487;BME280;7845;53.698;10.078;2023-08-21T02:02:26;101566.72;;;20.76;nan
15487;BME280;7845;53.698;10.078;2023-08-21T02:04:52;101569.78;;;20.66;nan
15487;BME280;7845;53.698;10.078;2023-08-21T02:07:20;101579.47;;;20.67;nan
15487;BME280;7845;53.698;10.078;2023-08-21T02:09:45;101576.16;;;20.60;nan
15487;BME280;7845;53.698;10.078;2023-08-21T02:12:11;101578.38;;;20.48;nan
15487;BME280;7845;53.698;10.078;2023-08-21T02:14:36;101582.28;;;20.37;nan
15487;BME280;7845;53.698;10.078;2023-08-21T02:17:02;101582.56;;;20.30;nan
15487;BME280;7845;53.698;10.078;2023-08-21T02:19:29;101576.66;;;20.20;nan
15487;BME280;7845;53.698;10.078;2023-08-21T02:21:54;101577.69;;;20.16;nan
15487;BME280;7845;53.698;10.078;2023-08-21T02:24:19;101585.81;;;20.12;nan
15487;BME280;7845;53.698;10.078;2023-08-21T02:26:45;101577.09;;;20.08;nan
15487;BME280;7845;53.698;10.078;2023-08-21T02:29:11;101572.25;;;20.21;nan
15487;BME280;7845;53.698;10.078;2023-08-21T02:31:36;101561.59;;;20.47;nan
15487;BME280;7845;53.698;10.078;2023-08-21T02:34:02;101561.53;;;20.24;nan
15487;BME280;7845;53.698;10.078;2023-08-21T02:36:28;101541.00;;;20.30;nan
15487;BME280;7845;53.698;10.078;2023-08-21T02:38:53;101533.88;;;20.31;nan
15487;BME280;7845;53.698;10.078;2023-08-21T02:41:24;101541.44;;;20.17;nan
15487;BME280;7845;53.698;10.078;2023-08-21T02:43:50;101542.03;;;20.26;nan
15487;BME280;7845;53.698;10.078;2023-08-21T02:46:15;101549.94;;;20.28;nan
15487;BME280;7845;53.698;10.078;2023-08-21T02:48:42;101550.78;;;20.28;nan
15487;BME280;7845;53.698;10.078;2023-08-21T02:51:07;101539.81;;;20.39;nan
15487;BME280;7845;53.698;10.078;2023-08-21T02:53:32;101538.53;;;20.49;nan
15487;BME280;7845;53.698;10.078;2023-08-21T02:55:58;101538.50;;;20.51;nan
15487;BME280;7845;53.698;10.078;2023-08-21T02:58:23;101536.06;;;20.68;nan
15487;BME280;7845;53.698;10.078;2023-08-21T03:00:48;101553.06;;;20.87;nan
15487;BME280;7845;53.698;10.078;2023-08-21T03:03:14;101560.25;;;20.60;nan
15487;BME280;7845;53.698;10.078;2023-08-21T03:05:39;101545.66;;;20.72;nan
15487;BME280;7845;53.698;10.078;2023-08-21T03:08:04;101511.94;;;20.75;nan
15487;BME280;7845;53.698;10.078;2023-08-21T03:10:30;101524.78;;;20.63;nan
15487;BME280;7845;53.698;10.078;2023-08-21T03:12:58;101530.97;;;20.63;nan
15487;BME280;7845;53.698;10.078;2023-08-21T03:15:25;101542.25;;;20.68;nan
15487;BME280;7845;53.698;10.078;2023-08-21T03:17:50;101537.72;;;20.72;nan
15487;BME280;7845;53.698;10.078;2023-08-21T03:20:16;101540.00;;;20.81;nan
15487;BME280;7845;53.698;10.078;2023-08-21T03:22:42;101540.00;;;20.58;nan
15487;BME280;7845;53.698;10.078;2023-08-21T03:25:08;101532.88;;;20.35;nan
15487;BME280;7845;53.698;10.078;2023-08-21T03:27:34;101520.78;;;20.28;nan
15487;BME280;7845;53.698;10.078;2023-08-21T03:30:06;101518.63;;;20.37;nan
15487;BME280;7845;53.698;10.078;2023-08-21T03:32:32;101516.28;;;20.53;nan
15487;BME280;7845;53.698;10.078;2023-08-21T03:34:57;101509.13;;;20.55;nan
15487;BME280;7845;53.698;10.078;2023-08-21T03:37:23;101511.84;;;20.54;nan
15487;BME280;7845;53.698;10.078;2023-08-21T03:39:48;101512.19;;;20.45;nan
15487;BME280;7845;53.698;10.078;2023-08-21T03:42:14;101507.56;;;20.50;nan
15487;BME280;7845;53.698;10.078;2023-08-21T03:44:39;101504.91;;;20.50;nan
15487;BME280;7845;53.698;10.078;2023-08-21T03:47:05;101509.59;;;20.18;nan
15487;BME280;7845;53.698;10.078;2023-08-21T03:49:30;101504.00;;;20.27;nan
15487;BME280;7845;53.698;10.078;2023-08-21T03:51:55;101504.34;;;20.41;nan
15487;BME280;7845;53.698;10.078;2023-08-21T03:54:21;101486.53;;;20.20;nan
15487;BME280;7845;53.698;10.078;2023-08-21T03:56:47;101490.53;;;20.32;nan
15487;BME280;7845;53.698;10.078;2023-08-21T03:59:13;101476.84;;;20.44;nan
15487;BME280;7845;53.698;10.078;2023-08-21T04:01:40;101456.84;;;20.35;nan
15487;BME280;7845;53.698;10.078;2023-08-21T04:04:05;101444.88;;;20.24;nan
15487;BME280;7845;53.698;10.078;2023-08-21T04:06:32;101456.38;;;20.23;nan
15487;BME280;7845;53.698;10.078;2023-08-21T04:08:57;101469.19;;;20.36;nan
15487;BME280;7845;53.698;10.078;2023-08-21T04:11:23;101467.31;;;20.38;nan
15487;BME280;7845;53.698;10.078;2023-08-21T04:13:48;101452.94;;;20.21;nan
15487;BME280;7845;53.698;10.078;2023-08-21T04:16:13;101455.38;;;20.27;nan
15487;BME280;7845;53.698;10.078;2023-08-21T04:18:41;101458.78;;;20.06;nan
15487;BME280;7845;53.698;10.078;2023-08-21T04:21:06;101453.72;;;20.23;nan
15487;BME280;7845;53.698;10.078;2023-08-21T04:23:32;101465.44;;;20.17;nan
15487;BME280;7845;53.698;10.078;2023-08-21T04:26:02;101446.88;;;20.17;nan
15487;BME280;7845;53.698;10.078;2023-08-21T04:28:32;101445.69;;;20.26;nan
15487;BME280;7845;53.698;10.078;2023-08-21T04:30:58;101436.72;;;20.30;nan
15487;BME280;7845;53.698;10.078;2023-08-21T04:33:28;101458.16;;;20.47;nan
15487;BME280;7845;53.698;10.078;2023-08-21T04:35:53;101458.56;;;20.36;nan
15487;BME280;7845;53.698;10.078;2023-08-21T04:38:19;101444.91;;;20.47;nan
15487;BME280;7845;53.698;10.078;2023-08-21T04:40:44;101444.13;;;20.43;nan
15487;BME280;7845;53.698;10.078;2023-08-21T04:43:09;101449.97;;;20.53;nan
15487;BME280;7845;53.698;10.078;2023-08-21T04:45:35;101459.59;;;20.56;nan
15487;BME280;7845;53.698;10.078;2023-08-21T04:48:04;101438.59;;;20.50;nan
15487;BME280;7845;53.698;10.078;2023-08-21T04:50:29;101438.13;;;20.62;nan
15487;BME280;7845;53.698;10.078;2023-08-21T04:52:55;101452.59;;;20.76;nan
15487;BME280;7845;53.698;10.078;2023-08-21T04:55:20;101462.22;;;20.79;nan
15487;BME280;7845;53.698;10.078;2023-08-21T04:57:46;101474.56;;;20.80;nan
15487;BME280;7845;53.698;10.078;2023-08-21T05:00:12;101478.75;;;20.87;nan
15487;BME280;7845;53.698;10.078;2023-08-21T05:02:41;101483.56;;;20.99;nan
15487;BME280;7845;53.698;10.078;2023-08-21T05:05:07;101482.28;;;21.09;nan
15487;BME280;7845;53.698;10.078;2023-08-21T05:07:35;101481.81;;;20.98;nan
15487;BME280;7845;53.698;10.078;2023-08-21T05:10:01;101474.66;;;21.00;nan
15487;BME280;7845;53.698;10.078;2023-08-21T05:12:26;101476.88;;;21.12;nan
15487;BME280;7845;53.698;10.078;2023-08-21T05:14:52;101489.47;;;21.29;nan
15487;BME280;7845;53.698;10.078;2023-08-21T05:17:18;101499.09;;;21.31;nan
15487;BME280;7845;53.698;10.078;2023-08-21T05:19:43;101493.53;;;21.37;nan
15487;BME280;7845;53.698;10.078;2023-08-21T05:22:09;101490.50;;;21.46;nan
15487;BME280;7845;53.698;10.078;2023-08-21T05:24:35;101494.97;;;21.46;nan
15487;BME280;7845;53.698;10.078;2023-08-21T05:27:00;101500.75;;;21.56;nan
15487;BME280;7845;53.698;10.078;2023-08-21T05:29:27;101505.94;;;21.59;nan
15487;BME280;7845;53.698;10.078;2023-08-21T05:31:52;101509.22;;;21.65;nan
15487;BME280;7845;53.698;10.078;2023-08-21T05:34:19;101508.97;;;21.71;nan
15487;BME280;7845;53.698;10.078;2023-08-21T05:36:44;101507.84;;;21.77;nan
15487;BME280;7845;53.698;10.078;2023-08-21T05:39:09;101500.63;;;21.59;nan
15487;BME280;7845;53.698;10.078;2023-08-21T05:41:35;101487.97;;;21.65;nan
15487;BME280;7845;53.698;10.078;2023-08-21T05:44:00;101481.84;;;21.83;nan
15487;BME280;7845;53.698;10.078;2023-08-21T05:46:25;101480.78;;;21.89;nan
15487;BME280;7845;53.698;10.078;2023-08-21T05:48:51;101482.56;;;21.88;nan
15487;BME280;7845;53.698;10.078;2023-08-21T05:51:17;101480.78;;;21.87;nan
15487;BME280;7845;53.698;10.078;2023-08-21T05:53:42;101473.72;;;21.88;nan
15487;BME280;7845;53.698;10.078;2023-08-21T05:56:08;101469.94;;;21.72;nan
15487;BME280;7845;53.698;10.078;2023-08-21T05:58:34;101452.72;;;21.80;nan
15487;BME280;7845;53.698;10.078;2023-08-21T06:01:00;101450.81;;;21.84;nan
15487;BME280;7845;53.698;10.078;2023-08-21T06:03:25;101436.34;;;21.71;nan
15487;BME280;7845;53.698;10.078;2023-08-21T06:05:50;101442.56;;;21.91;nan
15487;BME280;7845;53.698;10.078;2023-08-21T06:08:16;101443.28;;;21.95;nan
15487;BME280;7845;53.698;10.078;2023-08-21T06:10:41;101453.13;;;22.13;nan
15487;BME280;7845;53.698;10.078;2023-08-21T06:13:07;101469.78;;;22.17;nan
15487;BME280;7845;53.698;10.078;2023-08-21T06:15:33;101471.28;;;22.22;nan
15487;BME280;7845;53.698;10.078;2023-08-21T06:17:58;101482.38;;;22.32;nan
15487;BME280;7845;53.698;10.078;2023-08-21T06:20:24;101479.94;;;22.27;nan
15487;BME280;7845;53.698;10.078;2023-08-21T06:22:49;101486.22;;;22.06;nan
15487;BME280;7845;53.698;10.078;2023-08-21T06:25:15;101460.13;;;22.14;nan
15487;BME280;7845;53.698;10.078;2023-08-21T06:27:40;101458.59;;;22.29;nan
15487;BME280;7845;53.698;10.078;2023-08-21T06:30:06;101467.31;;;22.12;nan
15487;BME280;7845;53.698;10.078;2023-08-21T06:32:32;101473.22;;;22.39;nan
15487;BME280;7845;53.698;10.078;2023-08-21T06:34:58;101479.03;;;22.47;nan
15487;BME280;7845;53.698;10.078;2023-08-21T06:37:23;101487.09;;;22.45;nan
15487;BME280;7845;53.698;10.078;2023-08-21T06:39:48;101489.34;;;22.16;nan
15487;BME280;7845;53.698;10.078;2023-08-21T06:42:14;101492.06;;;22.53;nan
15487;BME280;7845;53.698;10.078;2023-08-21T06:44:40;101475.63;;;22.43;nan
15487;BME280;7845;53.698;10.078;2023-08-21T06:47:05;101461.78;;;22.17;nan
15487;BME280;7845;53.698;10.078;2023-08-21T06:49:30;101466.44;;;22.32;nan
15487;BME280;7845;53.698;10.078;2023-08-21T06:51:55;101469.63;;;22.40;nan
15487;BME280;7845;53.698;10.078;2023-08-21T06:54:22;101459.03;;;22.38;nan
15487;BME280;7845;53.698;10.078;2023-08-21T06:56:47;101464.22;;;22.41;nan
15487;BME280;7845;53.698;10.078;2023-08-21T06:59:13;101477.81;;;22.54;nan
15487;BME280;7845;53.698;10.078;2023-08-21T07:01:38;101485.69;;;22.57;nan
15487;BME280;7845;53.698;10.078;2023-08-21T07:04:03;101500.81;;;22.55;nan
15487;BME280;7845;53.698;10.078;2023-08-21T07:06:30;101505.63;;;22.47;nan
15487;BME280;7845;53.698;10.078;2023-08-21T07:08:55;101500.53;;;22.61;nan
15487;BME280;7845;53.698;10.078;2023-08-21T07:11:24;101518.94;;;22.67;nan
15487;BME280;7845;53.698;10.078;2023-08-21T07:13:50;101518.94;;;22.67;nan
15487;BME280;7845;53.698;10.078;2023-08-21T07:16:17;101516.28;;;22.67;nan
15487;BME280;7845;53.698;10.078;2023-08-21T07:18:42;101522.13;;;22.75;nan
15487;BME280;7845;53.698;10.078;2023-08-21T07:21:09;101531.75;;;22.78;nan
15487;BME280;7845;53.698;10.078;2023-08-21T07:23:36;101551.47;;;22.74;nan
15487;BME280;7845;53.698;10.078;2023-08-21T07:26:01;101559.34;;;22.95;nan
15487;BME280;7845;53.698;10.078;2023-08-21T07:28:27;101553.09;;;22.96;nan
15487;BME280;7845;53.698;10.078;2023-08-21T07:30:58;101570.63;;;23.00;nan
15487;BME280;7845;53.698;10.078;2023-08-21T07:33:25;101587.16;;;23.08;nan
15487;BME280;7845;53.698;10.078;2023-08-21T07:36:05;101618.38;;;23.05;nan
15487;BME280;7845;53.698;10.078;2023-08-21T07:38:33;101618.78;;;22.96;nan
15487;BME280;7845;53.698;10.078;2023-08-21T07:41:06;101626.16;;;23.28;nan
15487;BME280;7845;53.698;10.078;2023-08-21T07:43:33;101637.72;;;23.47;nan
15487;BME280;7845;53.698;10.078;2023-08-21T07:46:04;101654.06;;;23.40;nan
15487;BME280;7845;53.698;10.078;2023-08-21T07:48:30;101653.47;;;23.14;nan
15487;BME280;7845;53.698;10.078;2023-08-21T07:50:56;101655.06;;;23.37;nan
15487;BME280;7845;53.698;10.078;2023-08-21T07:53:22;101671.22;;;23.53;nan
15487;BME280;7845;53.698;10.078;2023-08-21T07:55:47;101694.25;;;23.15;nan
15487;BME280;7845;53.698;10.078;2023-08-21T07:58:13;101725.34;;;23.35;nan
15487;BME280;7845;53.698;10.078;2023-08-21T08:00:40;101728.84;;;23.55;nan
15487;BME280;7845;53.698;10.078;2023-08-21T08:03:06;101730.94;;;23.29;nan
15487;BME280;7845;53.698;10.078;2023-08-21T08:05:31;101730.06;;;23.48;nan
15487;BME280;7845;53.698;10.078;2023-08-21T08:07:57;101733.91;;;23.61;nan
15487;BME280;7845;53.698;10.078;2023-08-21T08:10:23;101732.53;;;23.72;nan
15487;BME280;7845;53.698;10.078;2023-08-21T08:12:49;101728.28;;;23.49;nan
15487;BME280;7845;53.698;10.078;2023-08-21T08:15:14;101740.38;;;23.75;nan
15487;BME280;7845;53.698;10.078;2023-08-21T08:17:40;101776.66;;;23.40;nan
15487;BME280;7845;53.698;10.078;2023-08-21T08:20:05;101779.44;;;23.76;nan
15487;BME280;7845;53.698;10.078;2023-08-21T08:22:31;101818.50;;;23.58;nan
15487;BME280;7845;53.698;10.078;2023-08-21T08:24:56;101821.47;;;23.71;nan
15487;BME280;7845;53.698;10.078;2023-08-21T08:27:22;101818.50;;;23.58;nan
15487;BME280;7845;53.698;10.078;2023-08-21T08:29:49;101825.19;;;23.66;nan
15487;BME280;7845;53.698;10.078;2023-08-21T08:32:14;101816.59;;;23.99;nan
15487;BME280;7845;53.698;10.078;2023-08-21T08:34:40;101825.28;;;23.84;nan
15487;BME280;7845;53.698;10.078;2023-08-21T08:37:05;101838.75;;;24.19;nan
15487;BME280;7845;53.698;10.078;2023-08-21T08:39:30;101874.41;;;24.18;nan
15487;BME280;7845;53.698;10.078;2023-08-21T08:42:03;101872.66;;;24.17;nan
15487;BME280;7845;53.698;10.078;2023-08-21T08:44:30;101902.69;;;24.02;nan
15487;BME280;7845;53.698;10.078;2023-08-21T08:46:57;101906.84;;;23.89;nan
15487;BME280;7845;53.698;10.078;2023-08-21T08:49:23;101904.91;;;23.93;nan
15487;BME280;7845;53.698;10.078;2023-08-21T08:51:50;101900.56;;;24.29;nan
15487;BME280;7845;53.698;10.078;2023-08-21T08:54:19;101896.06;;;24.31;nan
15487;BME280;7845;53.698;10.078;2023-08-21T08:56:45;101888.09;;;24.30;nan
15487;BME280;7845;53.698;10.078;2023-08-21T08:59:10;101901.44;;;24.30;nan
15487;BME280;7845;53.698;10.078;2023-08-21T09:01:36;101907.84;;;24.26;nan
15487;BME280;7845;53.698;10.078;2023-08-21T09:04:07;101911.84;;;24.36;nan
15487;BME280;7845;53.698;10.078;2023-08-21T09:06:33;101906.66;;;24.51;nan
15487;BME280;7845;53.698;10.078;2023-08-21T09:08:59;101913.41;;;24.96;nan
15487;BME280;7845;53.698;10.078;2023-08-21T09:11:29;101932.03;;;24.60;nan
15487;BME280;7845;53.698;10.078;2023-08-21T09:13:54;101944.53;;;24.97;nan
15487;BME280;7845;53.698;10.078;2023-08-21T09:16:24;101953.34;;;24.99;nan
15487;BME280;7845;53.698;10.078;2023-08-21T09:18:56;101947.34;;;24.75;nan
15487;BME280;7845;53.698;10.078;2023-08-21T09:21:26;101958.09;;;24.36;nan
15487;BME280;7845;53.698;10.078;2023-08-21T09:24:02;101944.47;;;24.42;nan
15487;BME280;7845;53.698;10.078;2023-08-21T09:26:31;101941.41;;;24.68;nan
15487;BME280;7845;53.698;10.078;2023-08-21T09:29:03;101954.00;;;24.66;nan
15487;BME280;7845;53.698;10.078;2023-08-21T09:31:31;101949.56;;;24.65;nan
15487;BME280;7845;53.698;10.078;2023-08-21T09:33:59;101955.09;;;24.81;nan
15487;BME280;7845;53.698;10.078;2023-08-21T09:36:26;101981.28;;;24.92;nan
15487;BME280;7845;53.698;10.078;2023-08-21T09:38:52;101979.09;;;24.62;nan
15487;BME280;7845;53.698;10.078;2023-08-21T09:41:21;101979.31;;;24.58;nan
15487;BME280;7845;53.698;10.078;2023-08-21T09:43:49;101970.75;;;24.70;nan
15487;BME280;7845;53.698;10.078;2023-08-21T09:46:26;101977.22;;;24.64;nan
15487;BME280;7845;53.698;10.078;2023-08-21T09:48:53;101968.34;;;25.01;nan
15487;BME280;7845;53.698;10.078;2023-08-21T09:51:20;101974.69;;;24.80;nan
15487;BME280;7845;53.698;10.078;2023-08-21T09:53:48;101974.25;;;24.70;nan
15487;BME280;7845;53.698;10.078;2023-08-21T09:56:14;101975.44;;;24.84;nan
15487;BME280;7845;53.698;10.078;2023-08-21T09:58:40;101970.59;;;24.92;nan
15487;BME280;7845;53.698;10.078;2023-08-21T10:01:07;101973.44;;;24.50;nan
15487;BME280;7845;53.698;10.078;2023-08-21T10:03:40;101972.97;;;24.60;nan
15487;BME280;7845;53.698;10.078;2023-08-21T10:06:08;101960.34;;;24.64;nan
15487;BME280;7845;53.698;10.078;2023-08-21T10:08:38;101962.06;;;25.02;nan
15487;BME280;7845;53.698;10.078;2023-08-21T10:11:07;101960.97;;;25.06;nan
15487;BME280;7845;53.698;10.078;2023-08-21T10:13:36;101980.59;;;24.68;nan
15487;BME280;7845;53.698;10.078;2023-08-21T10:16:02;101977.34;;;24.82;nan
15487;BME280;7845;53.698;10.078;2023-08-21T10:18:33;101972.84;;;24.82;nan
15487;BME280;7845;53.698;10.078;2023-08-21T10:21:11;101967.78;;;24.95;nan
15487;BME280;7845;53.698;10.078;2023-08-21T10:23:38;101954.38;;;25.13;nan
15487;BME280;7845;53.698;10.078;2023-08-21T10:26:06;101958.56;;;25.36;nan
15487;BME280;7845;53.698;10.078;2023-08-21T10:28:53;101986.75;;;25.07;nan
15487;BME280;7845;53.698;10.078;2023-08-21T10:33:51;101997.84;;;24.81;nan
15487;BME280;7845;53.698;10.078;2023-08-21T10:39:18;101993.06;;;24.88;nan
15487;BME280;7845;53.698;10.078;2023-08-21T10:47:17;102008.91;;;25.09;nan
15487;BME280;7845;53.698;10.078;2023-08-21T10:49:50;102011.53;;;24.92;nan
15487;BME280;7845;53.698;10.078;2023-08-21T10:52:43;102006.91;;;25.14;nan
15487;BME280;7845;53.698;10.078;2023-08-21T10:55:15;101994.03;;;25.22;nan
15487;BME280;7845;53.698;10.078;2023-08-21T10:57:43;101999.69;;;25.33;nan
15487;BME280;7845;53.698;10.078;2023-08-21T11:00:16;102005.28;;;24.93;nan
15487;BME280;7845;53.698;10.078;2023-08-21T11:02:49;101996.28;;;25.13;nan
15487;BME280;7845;53.698;10.078;2023-08-21T11:05:15;102005.16;;;25.13;nan
15487;BME280;7845;53.698;10.078;2023-08-21T11:07:46;102000.63;;;25.51;nan
15487;BME280;7845;53.698;10.078;2023-08-21T11:10:14;102011.44;;;25.12;nan
15487;BME280;7845;53.698;10.078;2023-08-21T11:12:50;101996.72;;;25.58;nan
15487;BME280;7845;53.698;10.078;2023-08-21T11:15:17;102003.03;;;25.74;nan
15487;BME280;7845;53.698;10.078;2023-08-21T11:17:53;102014.81;;;25.70;nan
15487;BME280;7845;53.698;10.078;2023-08-21T11:20:19;102005.38;;;25.80;nan
15487;BME280;7845;53.698;10.078;2023-08-21T11:22:46;102004.50;;;25.97;nan
15487;BME280;7845;53.698;10.078;2023-08-21T11:25:15;102009.38;;;25.89;nan
15487;BME280;7845;53.698;10.078;2023-08-21T11:28:00;102006.25;;;25.98;nan
15487;BME280;7845;53.698;10.078;2023-08-21T11:30:28;102011.31;;;26.37;nan
15487;BME280;7845;53.698;10.078;2023-08-21T11:33:12;102015.59;;;26.07;nan
15487;BME280;7845;53.698;10.078;2023-08-21T11:35:38;102012.31;;;26.19;nan
15487;BME280;7845;53.698;10.078;2023-08-21T11:38:04;102018.34;;;26.22;nan
15487;BME280;7845;53.698;10.078;2023-08-21T11:40:30;102022.03;;;26.20;nan
15487;BME280;7845;53.698;10.078;2023-08-21T11:43:03;102019.84;;;26.61;nan
15487;BME280;7845;53.698;10.078;2023-08-21T11:45:30;102022.97;;;26.69;nan
15487;BME280;7845;53.698;10.078;2023-08-21T11:47:56;102016.09;;;26.48;nan
15487;BME280;7845;53.698;10.078;2023-08-21T11:50:21;102024.81;;;26.51;nan
15487;BME280;7845;53.698;10.078;2023-08-21T11:52:47;102021.41;;;26.32;nan
15487;BME280;7845;53.698;10.078;2023-08-21T11:55:12;102015.03;;;26.17;nan
15487;BME280;7845;53.698;10.078;2023-08-21T11:57:51;102013.63;;;26.27;nan
15487;BME280;7845;53.698;10.078;2023-08-21T12:00:17;102014.44;;;26.45;nan
15487;BME280;7845;53.698;10.078;2023-08-21T12:02:59;102010.97;;;26.76;nan
15487;BME280;7845;53.698;10.078;2023-08-21T12:05:26;102012.38;;;26.83;nan
15487;BME280;7845;53.698;10.078;2023-08-21T12:07:52;102012.66;;;26.61;nan
15487;BME280;7845;53.698;10.078;2023-08-21T12:10:25;102017.91;;;27.11;nan
15487;BME280;7845;53.698;10.078;2023-08-21T12:12:50;102019.00;;;27.54;nan
15487;BME280;7845;53.698;10.078;2023-08-21T12:15:17;102012.59;;;27.41;nan
15487;BME280;7845;53.698;10.078;2023-08-21T12:17:43;102012.63;;;27.25;nan
15487;BME280;7845;53.698;10.078;2023-08-21T12:20:09;102014.84;;;27.33;nan
15487;BME280;7845;53.698;10.078;2023-08-21T12:22:37;102019.56;;;27.29;nan
15487;BME280;7845;53.698;10.078;2023-08-21T12:25:04;102015.72;;;27.49;nan
15487;BME280;7845;53.698;10.078;2023-08-21T12:27:31;102019.44;;;27.31;nan
15487;BME280;7845;53.698;10.078;2023-08-21T12:29:56;102021.59;;;27.24;nan
15487;BME280;7845;53.698;10.078;2023-08-21T12:32:22;102019.69;;;26.79;nan
15487;BME280;7845;53.698;10.078;2023-08-21T12:34:48;102015.22;;;26.96;nan
15487;BME280;7845;53.698;10.078;2023-08-21T12:37:14;102023.56;;;26.74;nan
15487;BME280;7845;53.698;10.078;2023-08-21T12:39:39;102014.91;;;26.69;nan
15487;BME280;7845;53.698;10.078;2023-08-21T12:42:05;102020.16;;;27.03;nan
15487;BME280;7845;53.698;10.078;2023-08-21T12:44:30;102025.59;;;26.53;nan
15487;BME280;7845;53.698;10.078;2023-08-21T12:46:55;102017.72;;;27.30;nan
15487;BME280;7845;53.698;10.078;2023-08-21T12:49:21;102011.09;;;27.06;nan
15487;BME280;7845;53.698;10.078;2023-08-21T12:51:46;102016.44;;;26.90;nan
15487;BME280;7845;53.698;10.078;2023-08-21T12:54:11;102007.09;;;27.13;nan
15487;BME280;7845;53.698;10.078;2023-08-21T12:56:37;102013.50;;;27.10;nan
15487;BME280;7845;53.698;10.078;2023-08-21T12:59:02;102000.38;;;27.06;nan
15487;BME280;7845;53.698;10.078;2023-08-21T13:01:28;102009.59;;;27.31;nan
15487;BME280;7845;53.698;10.078;2023-08-21T13:03:54;102012.69;;;27.55;nan
15487;BME280;7845;53.698;10.078;2023-08-21T13:06:20;102015.94;;;27.15;nan
15487;BME280;7845;53.698;10.078;2023-08-21T13:08:45;102014.78;;;27.03;nan
15487;BME280;7845;53.698;10.078;2023-08-21T13:11:10;102017.03;;;27.11;nan
15487;BME280;7845;53.698;10.078;2023-08-21T13:13:36;102004.06;;;27.19;nan
15487;BME280;7845;53.698;10.078;2023-08-21T13:16:01;102014.53;;;27.23;nan
15487;BME280;7845;53.698;10.078;2023-08-21T13:18:27;102015.47;;;27.07;nan
15487;BME280;7845;53.698;10.078;2023-08-21T13:20:52;102009.69;;;26.83;nan